Weather at Big Mountain Airport

Public forecast

Using degrees Fahrenheit for public forecast. Weather courtesy of forecast.io.

Closest aviation weather report (METAR) to Big Mountain Airport

Closest report is Igiugig Airport, 19.8 nm (36.6 km) W. Retrieved 2021/06/13 16:56 UTC (43 minutes ago):

PAIG 131656Z AUTO 22005KT CLR 10/07 RMK AO2 SLPNO T01000067 PWINO

Closest aviation forecast (TAF) to Big Mountain Airport

Closest forecast is Iliamna Airport, 25.8 nm (47.8 km) NNE. Retrieved 2021/06/13 12:45 UTC (5 hours ago):

TAF PAIL 131143Z 1312/1412 23008KT P6SM SCT050 FM131500 19006KT P6SM SKC